sensor_id;sensor_type;location;lat;lon;timestamp;P1;durP1;ratioP1;P2;durP2;ratioP2
19255;SDS011;9762;52.490;13.410;2022-12-07T00:00:42;10.47;;;9.17;;
19255;SDS011;9762;52.490;13.410;2022-12-07T00:03:08;8.97;;;7.80;;
19255;SDS011;9762;52.490;13.410;2022-12-07T00:05:33;9.33;;;7.97;;
19255;SDS011;9762;52.490;13.410;2022-12-07T00:07:59;8.63;;;7.70;;
19255;SDS011;9762;52.490;13.410;2022-12-07T00:10:24;8.27;;;7.50;;
19255;SDS011;9762;52.490;13.410;2022-12-07T00:12:50;8.63;;;7.83;;
19255;SDS011;9762;52.490;13.410;2022-12-07T00:15:15;8.93;;;8.03;;
19255;SDS011;9762;52.490;13.410;2022-12-07T00:17:41;9.47;;;7.70;;
19255;SDS011;9762;52.490;13.410;2022-12-07T00:20:07;9.47;;;8.10;;
19255;SDS011;9762;52.490;13.410;2022-12-07T00:22:32;8.33;;;7.53;;
19255;SDS011;9762;52.490;13.410;2022-12-07T00:24:58;8.40;;;7.00;;
19255;SDS011;9762;52.490;13.410;2022-12-07T00:27:23;9.30;;;8.40;;
19255;SDS011;9762;52.490;13.410;2022-12-07T00:29:49;9.13;;;8.23;;
19255;SDS011;9762;52.490;13.410;2022-12-07T00:32:15;9.50;;;8.60;;
19255;SDS011;9762;52.490;13.410;2022-12-07T00:34:40;9.27;;;7.17;;
19255;SDS011;9762;52.490;13.410;2022-12-07T00:37:06;8.27;;;7.57;;
19255;SDS011;9762;52.490;13.410;2022-12-07T00:39:31;7.77;;;7.07;;
19255;SDS011;9762;52.490;13.410;2022-12-07T00:41:57;8.37;;;7.57;;
19255;SDS011;9762;52.490;13.410;2022-12-07T00:44:22;7.70;;;7.00;;
19255;SDS011;9762;52.490;13.410;2022-12-07T00:46:48;6.50;;;6.00;;
19255;SDS011;9762;52.490;13.410;2022-12-07T00:49:14;7.60;;;7.00;;
19255;SDS011;9762;52.490;13.410;2022-12-07T00:51:39;7.53;;;6.93;;
19255;SDS011;9762;52.490;13.410;2022-12-07T00:54:05;6.77;;;6.20;;
19255;SDS011;9762;52.490;13.410;2022-12-07T00:56:30;7.33;;;6.70;;
19255;SDS011;9762;52.490;13.410;2022-12-07T00:58:57;6.73;;;6.23;;
19255;SDS011;9762;52.490;13.410;2022-12-07T01:01:27;7.30;;;6.80;;
19255;SDS011;9762;52.490;13.410;2022-12-07T01:03:54;7.37;;;6.83;;
19255;SDS011;9762;52.490;13.410;2022-12-07T01:06:21;7.20;;;6.60;;
19255;SDS011;9762;52.490;13.410;2022-12-07T01:08:48;6.93;;;6.33;;
19255;SDS011;9762;52.490;13.410;2022-12-07T01:11:15;6.83;;;6.30;;
19255;SDS011;9762;52.490;13.410;2022-12-07T01:13:43;6.90;;;6.40;;
19255;SDS011;9762;52.490;13.410;2022-12-07T01:16:10;6.90;;;6.40;;
19255;SDS011;9762;52.490;13.410;2022-12-07T01:18:38;6.47;;;5.97;;
19255;SDS011;9762;52.490;13.410;2022-12-07T01:21:05;6.53;;;6.07;;
19255;SDS011;9762;52.490;13.410;2022-12-07T01:23:36;6.57;;;5.97;;
19255;SDS011;9762;52.490;13.410;2022-12-07T01:26:03;6.70;;;6.10;;
19255;SDS011;9762;52.490;13.410;2022-12-07T01:28:31;6.60;;;6.10;;
19255;SDS011;9762;52.490;13.410;2022-12-07T01:31:02;6.03;;;5.63;;
19255;SDS011;9762;52.490;13.410;2022-12-07T01:33:30;5.60;;;5.20;;
19255;SDS011;9762;52.490;13.410;2022-12-07T01:36:07;5.90;;;5.50;;
19255;SDS011;9762;52.490;13.410;2022-12-07T01:38:33;6.43;;;5.83;;
19255;SDS011;9762;52.490;13.410;2022-12-07T01:41:00;5.47;;;5.07;;
19255;SDS011;9762;52.490;13.410;2022-12-07T01:43:27;5.87;;;5.47;;
19255;SDS011;9762;52.490;13.410;2022-12-07T01:45:54;5.30;;;4.90;;
19255;SDS011;9762;52.490;13.410;2022-12-07T01:48:41;6.00;;;5.40;;
19255;SDS011;9762;52.490;13.410;2022-12-07T01:51:08;4.90;;;4.57;;
19255;SDS011;9762;52.490;13.410;2022-12-07T01:53:36;4.30;;;4.10;;
19255;SDS011;9762;52.490;13.410;2022-12-07T01:56:06;5.40;;;4.90;;
19255;SDS011;9762;52.490;13.410;2022-12-07T01:58:36;5.00;;;4.57;;
19255;SDS011;9762;52.490;13.410;2022-12-07T02:01:02;4.77;;;4.53;;
19255;SDS011;9762;52.490;13.410;2022-12-07T02:03:32;4.87;;;4.57;;
19255;SDS011;9762;52.490;13.410;2022-12-07T02:06:02;5.33;;;5.03;;
19255;SDS011;9762;52.490;13.410;2022-12-07T02:08:29;4.93;;;4.60;;
19255;SDS011;9762;52.490;13.410;2022-12-07T02:10:55;5.00;;;4.50;;
19255;SDS011;9762;52.490;13.410;2022-12-07T02:13:24;5.07;;;4.67;;
19255;SDS011;9762;52.490;13.410;2022-12-07T02:21:41;4.80;;;4.40;;
19255;SDS011;9762;52.490;13.410;2022-12-07T02:27:40;4.50;;;4.20;;
19255;SDS011;9762;52.490;13.410;2022-12-07T02:30:16;4.83;;;4.43;;
19255;SDS011;9762;52.490;13.410;2022-12-07T02:35:35;4.90;;;4.60;;
19255;SDS011;9762;52.490;13.410;2022-12-07T02:40:50;4.53;;;4.23;;
19255;SDS011;9762;52.490;13.410;2022-12-07T02:45:54;5.63;;;5.23;;
19255;SDS011;9762;52.490;13.410;2022-12-07T02:48:22;4.67;;;4.37;;
19255;SDS011;9762;52.490;13.410;2022-12-07T02:50:50;4.77;;;4.47;;
19255;SDS011;9762;52.490;13.410;2022-12-07T02:55:54;5.53;;;5.10;;
19255;SDS011;9762;52.490;13.410;2022-12-07T02:58:23;5.57;;;5.07;;
19255;SDS011;9762;52.490;13.410;2022-12-07T03:01:28;5.67;;;5.27;;
19255;SDS011;9762;52.490;13.410;2022-12-07T03:04:08;5.83;;;5.33;;
19255;SDS011;9762;52.490;13.410;2022-12-07T03:06:58;5.23;;;4.83;;
19255;SDS011;9762;52.490;13.410;2022-12-07T03:09:32;5.23;;;4.50;;
19255;SDS011;9762;52.490;13.410;2022-12-07T03:12:18;5.80;;;5.30;;
19255;SDS011;9762;52.490;13.410;2022-12-07T03:14:50;5.83;;;5.43;;
19255;SDS011;9762;52.490;13.410;2022-12-07T03:17:25;5.27;;;4.87;;
19255;SDS011;9762;52.490;13.410;2022-12-07T03:19:54;5.10;;;4.80;;
19255;SDS011;9762;52.490;13.410;2022-12-07T03:22:23;5.87;;;5.47;;
19255;SDS011;9762;52.490;13.410;2022-12-07T03:24:54;5.13;;;4.83;;
19255;SDS011;9762;52.490;13.410;2022-12-07T03:27:24;5.80;;;5.30;;
19255;SDS011;9762;52.490;13.410;2022-12-07T03:30:00;5.43;;;5.03;;
19255;SDS011;9762;52.490;13.410;2022-12-07T03:32:31;6.53;;;5.93;;
19255;SDS011;9762;52.490;13.410;2022-12-07T03:35:07;6.60;;;6.00;;
19255;SDS011;9762;52.490;13.410;2022-12-07T03:37:49;6.17;;;5.67;;
19255;SDS011;9762;52.490;13.410;2022-12-07T03:40:30;5.70;;;5.30;;
19255;SDS011;9762;52.490;13.410;2022-12-07T03:43:01;5.83;;;5.13;;
19255;SDS011;9762;52.490;13.410;2022-12-07T03:45:32;6.37;;;5.87;;
19255;SDS011;9762;52.490;13.410;2022-12-07T03:49:09;5.50;;;5.10;;
19255;SDS011;9762;52.490;13.410;2022-12-07T03:51:11;6.47;;;5.90;;
19255;SDS011;9762;52.490;13.410;2022-12-07T03:53:47;6.47;;;5.97;;
19255;SDS011;9762;52.490;13.410;2022-12-07T03:56:25;6.13;;;5.63;;
19255;SDS011;9762;52.490;13.410;2022-12-07T03:58:53;5.50;;;5.10;;
19255;SDS011;9762;52.490;13.410;2022-12-07T04:01:19;6.20;;;5.67;;
19255;SDS011;9762;52.490;13.410;2022-12-07T04:03:45;7.40;;;6.63;;
19255;SDS011;9762;52.490;13.410;2022-12-07T04:06:11;6.97;;;6.37;;
19255;SDS011;9762;52.490;13.410;2022-12-07T04:08:36;7.50;;;6.80;;
19255;SDS011;9762;52.490;13.410;2022-12-07T04:11:02;7.47;;;6.87;;
19255;SDS011;9762;52.490;13.410;2022-12-07T04:13:28;7.70;;;7.00;;
19255;SDS011;9762;52.490;13.410;2022-12-07T04:15:53;8.23;;;7.43;;
19255;SDS011;9762;52.490;13.410;2022-12-07T04:18:19;8.07;;;7.30;;
19255;SDS011;9762;52.490;13.410;2022-12-07T04:20:45;8.77;;;7.97;;
19255;SDS011;9762;52.490;13.410;2022-12-07T04:23:11;9.67;;;8.20;;
19255;SDS011;9762;52.490;13.410;2022-12-07T04:25:36;9.43;;;8.37;;
19255;SDS011;9762;52.490;13.410;2022-12-07T04:28:02;8.93;;;8.10;;
19255;SDS011;9762;52.490;13.410;2022-12-07T04:30:28;9.67;;;8.53;;
19255;SDS011;9762;52.490;13.410;2022-12-07T04:32:53;10.40;;;9.30;;
19255;SDS011;9762;52.490;13.410;2022-12-07T04:35:19;9.87;;;8.97;;
19255;SDS011;9762;52.490;13.410;2022-12-07T04:37:45;10.77;;;9.73;;
19255;SDS011;9762;52.490;13.410;2022-12-07T04:40:13;10.53;;;9.27;;
19255;SDS011;9762;52.490;13.410;2022-12-07T04:42:39;11.67;;;10.53;;
19255;SDS011;9762;52.490;13.410;2022-12-07T04:45:10;10.83;;;9.80;;
19255;SDS011;9762;52.490;13.410;2022-12-07T04:47:43;12.70;;;11.17;;
19255;SDS011;9762;52.490;13.410;2022-12-07T04:50:09;11.67;;;10.47;;
19255;SDS011;9762;52.490;13.410;2022-12-07T04:52:37;12.27;;;10.97;;
19255;SDS011;9762;52.490;13.410;2022-12-07T04:55:06;15.47;;;12.10;;
19255;SDS011;9762;52.490;13.410;2022-12-07T04:57:31;14.03;;;12.40;;
19255;SDS011;9762;52.490;13.410;2022-12-07T05:00:00;13.57;;;12.17;;
19255;SDS011;9762;52.490;13.410;2022-12-07T05:02:28;14.33;;;11.57;;
19255;SDS011;9762;52.490;13.410;2022-12-07T05:05:02;13.60;;;12.20;;
19255;SDS011;9762;52.490;13.410;2022-12-07T05:07:30;14.20;;;12.70;;
19255;SDS011;9762;52.490;13.410;2022-12-07T05:09:56;13.90;;;12.43;;
19255;SDS011;9762;52.490;13.410;2022-12-07T05:12:24;14.27;;;12.77;;
19255;SDS011;9762;52.490;13.410;2022-12-07T05:14:53;17.00;;;12.90;;
19255;SDS011;9762;52.490;13.410;2022-12-07T05:17:18;13.83;;;12.40;;
19255;SDS011;9762;52.490;13.410;2022-12-07T05:19:47;16.10;;;13.03;;
19255;SDS011;9762;52.490;13.410;2022-12-07T05:22:15;15.00;;;13.20;;
19255;SDS011;9762;52.490;13.410;2022-12-07T05:24:41;16.30;;;13.63;;
19255;SDS011;9762;52.490;13.410;2022-12-07T05:27:10;16.13;;;13.30;;
19255;SDS011;9762;52.490;13.410;2022-12-07T05:29:38;16.20;;;14.00;;
19255;SDS011;9762;52.490;13.410;2022-12-07T05:32:04;17.87;;;14.03;;
19255;SDS011;9762;52.490;13.410;2022-12-07T05:34:33;15.13;;;13.53;;
19255;SDS011;9762;52.490;13.410;2022-12-07T05:36:58;16.43;;;14.00;;
19255;SDS011;9762;52.490;13.410;2022-12-07T05:39:27;15.70;;;13.73;;
19255;SDS011;9762;52.490;13.410;2022-12-07T05:41:53;16.83;;;14.17;;
19255;SDS011;9762;52.490;13.410;2022-12-07T05:44:37;18.87;;;14.83;;
19255;SDS011;9762;52.490;13.410;2022-12-07T05:47:06;18.47;;;14.37;;
19255;SDS011;9762;52.490;13.410;2022-12-07T05:49:32;20.13;;;14.40;;
19255;SDS011;9762;52.490;13.410;2022-12-07T05:52:06;17.63;;;14.57;;
19255;SDS011;9762;52.490;13.410;2022-12-07T05:54:31;17.73;;;14.67;;
19255;SDS011;9762;52.490;13.410;2022-12-07T05:56:57;20.27;;;14.43;;
19255;SDS011;9762;52.490;13.410;2022-12-07T05:59:23;16.87;;;14.73;;
19255;SDS011;9762;52.490;13.410;2022-12-07T06:01:50;17.50;;;14.47;;
19255;SDS011;9762;52.490;13.410;2022-12-07T06:04:24;20.90;;;14.60;;
19255;SDS011;9762;52.490;13.410;2022-12-07T06:06:51;20.37;;;15.57;;
19255;SDS011;9762;52.490;13.410;2022-12-07T06:09:17;17.97;;;15.37;;
19255;SDS011;9762;52.490;13.410;2022-12-07T06:11:44;18.03;;;15.07;;
19255;SDS011;9762;52.490;13.410;2022-12-07T06:14:28;19.70;;;15.73;;
19255;SDS011;9762;52.490;13.410;2022-12-07T06:16:54;18.77;;;15.33;;
19255;SDS011;9762;52.490;13.410;2022-12-07T06:19:19;19.97;;;15.17;;
19255;SDS011;9762;52.490;13.410;2022-12-07T06:21:45;23.40;;;16.73;;
19255;SDS011;9762;52.490;13.410;2022-12-07T06:24:11;22.23;;;15.90;;
19255;SDS011;9762;52.490;13.410;2022-12-07T06:26:38;21.40;;;16.67;;
19255;SDS011;9762;52.490;13.410;2022-12-07T06:29:04;18.83;;;15.33;;
19255;SDS011;9762;52.490;13.410;2022-12-07T06:31:30;21.37;;;16.53;;
19255;SDS011;9762;52.490;13.410;2022-12-07T06:33:57;21.60;;;15.83;;
19255;SDS011;9762;52.490;13.410;2022-12-07T06:36:27;18.90;;;15.33;;
19255;SDS011;9762;52.490;13.410;2022-12-07T06:38:53;20.40;;;15.60;;
19255;SDS011;9762;52.490;13.410;2022-12-07T06:41:18;20.53;;;15.20;;
19255;SDS011;9762;52.490;13.410;2022-12-07T06:43:44;18.00;;;14.70;;
19255;SDS011;9762;52.490;13.410;2022-12-07T06:46:10;19.00;;;14.43;;
19255;SDS011;9762;52.490;13.410;2022-12-07T06:48:35;18.60;;;14.87;;
19255;SDS011;9762;52.490;13.410;2022-12-07T06:51:01;17.87;;;15.30;;
19255;SDS011;9762;52.490;13.410;2022-12-07T06:53:27;17.47;;;14.80;;
19255;SDS011;9762;52.490;13.410;2022-12-07T06:55:52;19.77;;;14.33;;
19255;SDS011;9762;52.490;13.410;2022-12-07T06:58:18;20.23;;;15.47;;
19255;SDS011;9762;52.490;13.410;2022-12-07T07:00:44;17.50;;;15.03;;
19255;SDS011;9762;52.490;13.410;2022-12-07T07:03:10;23.50;;;15.67;;
19255;SDS011;9762;52.490;13.410;2022-12-07T07:05:36;27.33;;;17.53;;
19255;SDS011;9762;52.490;13.410;2022-12-07T07:08:02;19.33;;;15.87;;
19255;SDS011;9762;52.490;13.410;2022-12-07T07:10:28;21.00;;;15.57;;
19255;SDS011;9762;52.490;13.410;2022-12-07T07:12:54;19.33;;;15.57;;
19255;SDS011;9762;52.490;13.410;2022-12-07T07:15:20;21.97;;;18.70;;
19255;SDS011;9762;52.490;13.410;2022-12-07T07:17:45;19.07;;;15.10;;
19255;SDS011;9762;52.490;13.410;2022-12-07T07:20:11;18.80;;;15.17;;
19255;SDS011;9762;52.490;13.410;2022-12-07T07:22:37;19.37;;;16.23;;
19255;SDS011;9762;52.490;13.410;2022-12-07T07:25:03;28.33;;;21.20;;
19255;SDS011;9762;52.490;13.410;2022-12-07T07:27:28;19.87;;;14.57;;
19255;SDS011;9762;52.490;13.410;2022-12-07T07:29:54;22.17;;;16.47;;
19255;SDS011;9762;52.490;13.410;2022-12-07T07:32:20;22.77;;;14.37;;
19255;SDS011;9762;52.490;13.410;2022-12-07T07:34:46;19.47;;;14.10;;
19255;SDS011;9762;52.490;13.410;2022-12-07T07:37:12;18.27;;;12.63;;
19255;SDS011;9762;52.490;13.410;2022-12-07T07:39:39;14.83;;;12.33;;
19255;SDS011;9762;52.490;13.410;2022-12-07T07:42:05;15.43;;;11.70;;
19255;SDS011;9762;52.490;13.410;2022-12-07T07:44:32;13.43;;;10.83;;
19255;SDS011;9762;52.490;13.410;2022-12-07T07:46:58;32.53;;;22.70;;
19255;SDS011;9762;52.490;13.410;2022-12-07T07:49:24;14.83;;;12.20;;
19255;SDS011;9762;52.490;13.410;2022-12-07T07:51:50;14.83;;;12.30;;
19255;SDS011;9762;52.490;13.410;2022-12-07T07:54:16;17.07;;;12.00;;
19255;SDS011;9762;52.490;13.410;2022-12-07T07:56:41;19.50;;;11.90;;
19255;SDS011;9762;52.490;13.410;2022-12-07T07:59:07;12.63;;;11.33;;
19255;SDS011;9762;52.490;13.410;2022-12-07T08:01:33;16.30;;;11.80;;
19255;SDS011;9762;52.490;13.410;2022-12-07T08:03:58;12.23;;;10.40;;
19255;SDS011;9762;52.490;13.410;2022-12-07T08:06:24;18.50;;;10.07;;
19255;SDS011;9762;52.490;13.410;2022-12-07T08:08:50;11.30;;;9.47;;
19255;SDS011;9762;52.490;13.410;2022-12-07T08:11:16;11.07;;;7.90;;
19255;SDS011;9762;52.490;13.410;2022-12-07T08:13:44;10.53;;;7.97;;
19255;SDS011;9762;52.490;13.410;2022-12-07T08:16:11;10.93;;;7.67;;
19255;SDS011;9762;52.490;13.410;2022-12-07T08:18:38;9.17;;;7.73;;
19255;SDS011;9762;52.490;13.410;2022-12-07T08:21:05;9.77;;;7.07;;
19255;SDS011;9762;52.490;13.410;2022-12-07T08:23:31;11.50;;;7.60;;
19255;SDS011;9762;52.490;13.410;2022-12-07T08:26:01;8.93;;;6.73;;
19255;SDS011;9762;52.490;13.410;2022-12-07T08:28:29;7.53;;;6.47;;
19255;SDS011;9762;52.490;13.410;2022-12-07T08:30:58;10.90;;;6.90;;
19255;SDS011;9762;52.490;13.410;2022-12-07T08:33:28;7.43;;;6.67;;
19255;SDS011;9762;52.490;13.410;2022-12-07T08:35:54;6.23;;;5.73;;
19255;SDS011;9762;52.490;13.410;2022-12-07T08:38:24;8.90;;;5.53;;
19255;SDS011;9762;52.490;13.410;2022-12-07T08:40:56;5.83;;;4.70;;
19255;SDS011;9762;52.490;13.410;2022-12-07T08:43:23;5.53;;;4.47;;
19255;SDS011;9762;52.490;13.410;2022-12-07T08:45:51;4.60;;;4.30;;
19255;SDS011;9762;52.490;13.410;2022-12-07T08:48:41;5.57;;;4.70;;
19255;SDS011;9762;52.490;13.410;2022-12-07T08:51:20;3.63;;;3.33;;
19255;SDS011;9762;52.490;13.410;2022-12-07T08:53:47;3.20;;;2.90;;
19255;SDS011;9762;52.490;13.410;2022-12-07T08:56:14;4.70;;;3.17;;
19255;SDS011;9762;52.490;13.410;2022-12-07T08:58:40;3.17;;;2.30;;
19255;SDS011;9762;52.490;13.410;2022-12-07T09:01:06;2.70;;;2.40;;
19255;SDS011;9762;52.490;13.410;2022-12-07T09:03:32;3.17;;;2.33;;
19255;SDS011;9762;52.490;13.410;2022-12-07T09:05:57;5.60;;;2.27;;
19255;SDS011;9762;52.490;13.410;2022-12-07T09:08:27;2.53;;;2.33;;
19255;SDS011;9762;52.490;13.410;2022-12-07T09:10:58;1.90;;;1.80;;
19255;SDS011;9762;52.490;13.410;2022-12-07T09:13:23;2.10;;;1.97;;
19255;SDS011;9762;52.490;13.410;2022-12-07T09:15:49;2.10;;;1.90;;
19255;SDS011;9762;52.490;13.410;2022-12-07T09:18:14;2.37;;;2.27;;
19255;SDS011;9762;52.490;13.410;2022-12-07T09:20:40;1.47;;;1.47;;
19255;SDS011;9762;52.490;13.410;2022-12-07T09:23:06;3.03;;;2.70;;
19255;SDS011;9762;52.490;13.410;2022-12-07T09:25:32;2.50;;;2.40;;
19255;SDS011;9762;52.490;13.410;2022-12-07T09:27:59;3.27;;;2.30;;
19255;SDS011;9762;52.490;13.410;2022-12-07T09:30:25;2.30;;;2.10;;
19255;SDS011;9762;52.490;13.410;2022-12-07T09:32:55;2.13;;;2.00;;
19255;SDS011;9762;52.490;13.410;2022-12-07T09:35:22;6.70;;;2.00;;
19255;SDS011;9762;52.490;13.410;2022-12-07T09:37:49;3.17;;;1.90;;
19255;SDS011;9762;52.490;13.410;2022-12-07T09:40:15;3.27;;;2.40;;
19255;SDS011;9762;52.490;13.410;2022-12-07T09:42:44;2.37;;;2.27;;
19255;SDS011;9762;52.490;13.410;2022-12-07T09:45:17;3.20;;;2.90;;
19255;SDS011;9762;52.490;13.410;2022-12-07T09:47:48;2.60;;;2.50;;
19255;SDS011;9762;52.490;13.410;2022-12-07T09:50:16;2.60;;;2.40;;
19255;SDS011;9762;52.490;13.410;2022-12-07T09:52:44;2.17;;;2.07;;
19255;SDS011;9762;52.490;13.410;2022-12-07T09:55:13;6.07;;;2.53;;
19255;SDS011;9762;52.490;13.410;2022-12-07T09:57:50;2.57;;;2.30;;
19255;SDS011;9762;52.490;13.410;2022-12-07T10:00:18;4.03;;;2.70;;
19255;SDS011;9762;52.490;13.410;2022-12-07T10:02:47;4.40;;;2.17;;
19255;SDS011;9762;52.490;13.410;2022-12-07T10:05:24;3.43;;;2.27;;
19255;SDS011;9762;52.490;13.410;2022-12-07T10:08:01;2.00;;;1.90;;
19255;SDS011;9762;52.490;13.410;2022-12-07T10:10:29;2.50;;;2.40;;
19255;SDS011;9762;52.490;13.410;2022-12-07T10:23:38;1.93;;;1.93;;
19255;SDS011;9762;52.490;13.410;2022-12-07T10:28:58;3.80;;;3.50;;
19255;SDS011;9762;52.490;13.410;2022-12-07T10:31:26;2.97;;;2.77;;
19255;SDS011;9762;52.490;13.410;2022-12-07T10:33:57;3.30;;;3.00;;
19255;SDS011;9762;52.490;13.410;2022-12-07T10:36:35;3.33;;;3.03;;
19255;SDS011;9762;52.490;13.410;2022-12-07T10:39:03;3.50;;;3.30;;
19255;SDS011;9762;52.490;13.410;2022-12-07T10:41:52;3.93;;;3.63;;
19255;SDS011;9762;52.490;13.410;2022-12-07T10:44:20;3.17;;;2.93;;
19255;SDS011;9762;52.490;13.410;2022-12-07T10:46:51;3.30;;;3.10;;
19255;SDS011;9762;52.490;13.410;2022-12-07T10:52:55;2.93;;;2.80;;
19255;SDS011;9762;52.490;13.410;2022-12-07T10:55:37;3.57;;;3.00;;
19255;SDS011;9762;52.490;13.410;2022-12-07T11:01:02;2.90;;;2.70;;
19255;SDS011;9762;52.490;13.410;2022-12-07T11:06:40;3.10;;;2.90;;
19255;SDS011;9762;52.490;13.410;2022-12-07T11:09:20;3.10;;;2.90;;
19255;SDS011;9762;52.490;13.410;2022-12-07T11:12:05;3.10;;;2.90;;
19255;SDS011;9762;52.490;13.410;2022-12-07T11:17:43;3.67;;;3.40;;
19255;SDS011;9762;52.490;13.410;2022-12-07T11:23:21;3.73;;;3.43;;
19255;SDS011;9762;52.490;13.410;2022-12-07T11:31:37;5.57;;;3.43;;
19255;SDS011;9762;52.490;13.410;2022-12-07T11:34:22;7.80;;;3.53;;
19255;SDS011;9762;52.490;13.410;2022-12-07T11:36:56;7.53;;;3.40;;
19255;SDS011;9762;52.490;13.410;2022-12-07T11:39:25;3.40;;;3.10;;
19255;SDS011;9762;52.490;13.410;2022-12-07T11:42:04;3.17;;;2.87;;
19255;SDS011;9762;52.490;13.410;2022-12-07T11:47:35;6.77;;;3.30;;
19255;SDS011;9762;52.490;13.410;2022-12-07T11:50:21;3.40;;;3.20;;
19255;SDS011;9762;52.490;13.410;2022-12-07T11:52:58;3.30;;;3.07;;
19255;SDS011;9762;52.490;13.410;2022-12-07T12:03:40;3.10;;;2.90;;
19255;SDS011;9762;52.490;13.410;2022-12-07T12:06:10;4.67;;;3.00;;
19255;SDS011;9762;52.490;13.410;2022-12-07T12:18:00;5.53;;;2.70;;
19255;SDS011;9762;52.490;13.410;2022-12-07T12:21:07;6.10;;;2.80;;
19255;SDS011;9762;52.490;13.410;2022-12-07T12:26:23;8.13;;;2.90;;
19255;SDS011;9762;52.490;13.410;2022-12-07T12:39:07;3.37;;;2.53;;
19255;SDS011;9762;52.490;13.410;2022-12-07T12:46:59;3.97;;;2.63;;
19255;SDS011;9762;52.490;13.410;2022-12-07T12:52:00;4.53;;;2.90;;
19255;SDS011;9762;52.490;13.410;2022-12-07T12:54:38;4.67;;;2.70;;
19255;SDS011;9762;52.490;13.410;2022-12-07T12:57:29;3.87;;;2.30;;
19255;SDS011;9762;52.490;13.410;2022-12-07T13:02:58;5.00;;;2.57;;
19255;SDS011;9762;52.490;13.410;2022-12-07T13:05:23;4.47;;;2.80;;
19255;SDS011;9762;52.490;13.410;2022-12-07T13:12:59;5.17;;;2.60;;
19255;SDS011;9762;52.490;13.410;2022-12-07T13:18:22;4.80;;;2.70;;
19255;SDS011;9762;52.490;13.410;2022-12-07T13:20:55;5.47;;;3.63;;
19255;SDS011;9762;52.490;13.410;2022-12-07T13:23:26;6.50;;;2.50;;
19255;SDS011;9762;52.490;13.410;2022-12-07T13:28:39;5.40;;;3.97;;
19255;SDS011;9762;52.490;13.410;2022-12-07T13:33:39;8.37;;;4.90;;
19255;SDS011;9762;52.490;13.410;2022-12-07T13:36:14;10.27;;;6.70;;
19255;SDS011;9762;52.490;13.410;2022-12-07T13:38:54;3.87;;;3.40;;
19255;SDS011;9762;52.490;13.410;2022-12-07T13:41:25;4.67;;;3.53;;
19255;SDS011;9762;52.490;13.410;2022-12-07T13:44:11;2.97;;;2.77;;
19255;SDS011;9762;52.490;13.410;2022-12-07T13:49:37;5.47;;;4.17;;
19255;SDS011;9762;52.490;13.410;2022-12-07T13:54:46;8.30;;;6.13;;
19255;SDS011;9762;52.490;13.410;2022-12-07T13:57:15;3.73;;;2.90;;
19255;SDS011;9762;52.490;13.410;2022-12-07T13:59:42;11.93;;;10.37;;
19255;SDS011;9762;52.490;13.410;2022-12-07T14:02:27;8.00;;;7.20;;
19255;SDS011;9762;52.490;13.410;2022-12-07T14:07:54;7.27;;;3.83;;
19255;SDS011;9762;52.490;13.410;2022-12-07T14:10:23;7.97;;;5.83;;
19255;SDS011;9762;52.490;13.410;2022-12-07T14:12:55;20.00;;;11.73;;
19255;SDS011;9762;52.490;13.410;2022-12-07T14:15:23;7.90;;;6.13;;
19255;SDS011;9762;52.490;13.410;2022-12-07T14:17:54;8.33;;;5.93;;
19255;SDS011;9762;52.490;13.410;2022-12-07T14:20:28;7.77;;;5.97;;
19255;SDS011;9762;52.490;13.410;2022-12-07T14:23:03;5.07;;;3.60;;
19255;SDS011;9762;52.490;13.410;2022-12-07T14:25:45;5.27;;;2.70;;
19255;SDS011;9762;52.490;13.410;2022-12-07T14:28:26;6.33;;;3.17;;
19255;SDS011;9762;52.490;13.410;2022-12-07T14:30:52;4.37;;;2.70;;
19255;SDS011;9762;52.490;13.410;2022-12-07T14:33:18;6.40;;;2.63;;
19255;SDS011;9762;52.490;13.410;2022-12-07T14:35:44;5.73;;;3.10;;
19255;SDS011;9762;52.490;13.410;2022-12-07T14:38:10;8.23;;;3.10;;
19255;SDS011;9762;52.490;13.410;2022-12-07T14:40:35;4.33;;;2.43;;
19255;SDS011;9762;52.490;13.410;2022-12-07T14:43:02;6.67;;;2.93;;
19255;SDS011;9762;52.490;13.410;2022-12-07T14:45:30;2.77;;;2.27;;
19255;SDS011;9762;52.490;13.410;2022-12-07T14:47:56;6.90;;;3.07;;
19255;SDS011;9762;52.490;13.410;2022-12-07T14:50:21;9.63;;;2.80;;
19255;SDS011;9762;52.490;13.410;2022-12-07T14:52:51;4.77;;;3.07;;
19255;SDS011;9762;52.490;13.410;2022-12-07T14:55:25;11.53;;;5.63;;
19255;SDS011;9762;52.490;13.410;2022-12-07T14:57:55;11.87;;;3.53;;
19255;SDS011;9762;52.490;13.410;2022-12-07T15:00:22;5.80;;;3.00;;
19255;SDS011;9762;52.490;13.410;2022-12-07T15:02:49;6.60;;;2.73;;
19255;SDS011;9762;52.490;13.410;2022-12-07T15:05:15;8.03;;;2.50;;
19255;SDS011;9762;52.490;13.410;2022-12-07T15:07:41;9.17;;;3.40;;
19255;SDS011;9762;52.490;13.410;2022-12-07T15:10:14;7.60;;;2.87;;
19255;SDS011;9762;52.490;13.410;2022-12-07T15:12:48;8.77;;;2.37;;
19255;SDS011;9762;52.490;13.410;2022-12-07T15:15:13;5.73;;;2.93;;
19255;SDS011;9762;52.490;13.410;2022-12-07T15:17:40;7.33;;;2.80;;
19255;SDS011;9762;52.490;13.410;2022-12-07T15:20:07;8.63;;;2.50;;
19255;SDS011;9762;52.490;13.410;2022-12-07T15:22:37;4.30;;;2.50;;
19255;SDS011;9762;52.490;13.410;2022-12-07T15:25:02;7.93;;;2.60;;
19255;SDS011;9762;52.490;13.410;2022-12-07T15:27:30;4.07;;;2.47;;
19255;SDS011;9762;52.490;13.410;2022-12-07T15:29:55;6.47;;;2.90;;
19255;SDS011;9762;52.490;13.410;2022-12-07T15:32:21;7.47;;;3.93;;
19255;SDS011;9762;52.490;13.410;2022-12-07T15:34:48;4.47;;;2.23;;
19255;SDS011;9762;52.490;13.410;2022-12-07T15:37:15;6.83;;;2.60;;
19255;SDS011;9762;52.490;13.410;2022-12-07T15:39:41;7.63;;;3.17;;
19255;SDS011;9762;52.490;13.410;2022-12-07T15:42:07;7.87;;;3.23;;
19255;SDS011;9762;52.490;13.410;2022-12-07T15:44:33;4.27;;;2.60;;
19255;SDS011;9762;52.490;13.410;2022-12-07T15:47:17;9.83;;;2.80;;
19255;SDS011;9762;52.490;13.410;2022-12-07T15:49:42;4.63;;;2.53;;
19255;SDS011;9762;52.490;13.410;2022-12-07T15:52:08;7.47;;;2.87;;
19255;SDS011;9762;52.490;13.410;2022-12-07T15:54:34;6.97;;;2.73;;
19255;SDS011;9762;52.490;13.410;2022-12-07T15:57:00;9.13;;;2.47;;
19255;SDS011;9762;52.490;13.410;2022-12-07T15:59:26;3.27;;;2.10;;
19255;SDS011;9762;52.490;13.410;2022-12-07T16:01:52;8.10;;;2.30;;
19255;SDS011;9762;52.490;13.410;2022-12-07T16:04:18;4.27;;;2.23;;
19255;SDS011;9762;52.490;13.410;2022-12-07T16:06:44;5.83;;;2.70;;
19255;SDS011;9762;52.490;13.410;2022-12-07T16:09:09;4.67;;;2.60;;
19255;SDS011;9762;52.490;13.410;2022-12-07T16:11:35;8.57;;;3.30;;
19255;SDS011;9762;52.490;13.410;2022-12-07T16:14:01;8.43;;;2.63;;
19255;SDS011;9762;52.490;13.410;2022-12-07T16:16:27;4.43;;;2.40;;
19255;SDS011;9762;52.490;13.410;2022-12-07T16:18:53;5.90;;;2.47;;
19255;SDS011;9762;52.490;13.410;2022-12-07T16:21:19;4.63;;;2.07;;
19255;SDS011;9762;52.490;13.410;2022-12-07T16:23:45;11.07;;;2.93;;
19255;SDS011;9762;52.490;13.410;2022-12-07T16:26:12;11.63;;;3.10;;
19255;SDS011;9762;52.490;13.410;2022-12-07T16:28:50;5.23;;;2.53;;
19255;SDS011;9762;52.490;13.410;2022-12-07T16:31:17;7.67;;;3.10;;
19255;SDS011;9762;52.490;13.410;2022-12-07T16:33:44;17.47;;;8.00;;
19255;SDS011;9762;52.490;13.410;2022-12-07T16:36:11;15.73;;;7.90;;
19255;SDS011;9762;52.490;13.410;2022-12-07T16:38:38;13.70;;;6.97;;
19255;SDS011;9762;52.490;13.410;2022-12-07T16:41:07;8.27;;;4.23;;
19255;SDS011;9762;52.490;13.410;2022-12-07T16:43:33;12.97;;;4.93;;
19255;SDS011;9762;52.490;13.410;2022-12-07T16:46:00;16.63;;;9.67;;
19255;SDS011;9762;52.490;13.410;2022-12-07T16:48:26;12.13;;;7.60;;
19255;SDS011;9762;52.490;13.410;2022-12-07T16:50:51;16.23;;;10.37;;
19255;SDS011;9762;52.490;13.410;2022-12-07T16:53:21;8.03;;;5.10;;